sensor_id;sensor_type;location;lat;lon;timestamp;pressure;altitude;pressure_sealevel;temperature;humidity
56270;BME280;42176;43.240;27.880;2022-09-01T00:01:25;99791.19;;;21.35;84.14
56270;BME280;42176;43.240;27.880;2022-09-01T00:03:53;99787.78;;;21.33;84.11
56270;BME280;42176;43.240;27.880;2022-09-01T00:06:21;99789.81;;;21.29;84.40
56270;BME280;42176;43.240;27.880;2022-09-01T00:08:53;99793.28;;;21.19;84.31
56270;BME280;42176;43.240;27.880;2022-09-01T00:11:20;99788.41;;;21.24;84.56
56270;BME280;42176;43.240;27.880;2022-09-01T00:13:47;99790.38;;;21.22;84.85
56270;BME280;42176;43.240;27.880;2022-09-01T00:16:15;99795.00;;;21.20;84.75
56270;BME280;42176;43.240;27.880;2022-09-01T00:18:43;99798.78;;;21.17;84.88
56270;BME280;42176;43.240;27.880;2022-09-01T00:21:14;99800.09;;;21.11;85.01
56270;BME280;42176;43.240;27.880;2022-09-01T00:23:39;99798.38;;;21.10;85.41
56270;BME280;42176;43.240;27.880;2022-09-01T00:26:05;99789.75;;;21.05;85.64
56270;BME280;42176;43.240;27.880;2022-09-01T00:28:36;99786.28;;;21.03;85.90
56270;BME280;42176;43.240;27.880;2022-09-01T00:31:02;99780.91;;;21.03;86.02
56270;BME280;42176;43.240;27.880;2022-09-01T00:33:28;99777.47;;;21.01;86.01
56270;BME280;42176;43.240;27.880;2022-09-01T00:35:54;99778.44;;;21.00;85.99
56270;BME280;42176;43.240;27.880;2022-09-01T00:38:19;99762.28;;;21.00;86.07
56270;BME280;42176;43.240;27.880;2022-09-01T00:40:45;99763.47;;;20.96;86.20
56270;BME280;42176;43.240;27.880;2022-09-01T00:43:17;99776.38;;;20.91;86.36
56270;BME280;42176;43.240;27.880;2022-09-01T00:45:44;99785.78;;;20.85;86.90
56270;BME280;42176;43.240;27.880;2022-09-01T00:48:10;99792.75;;;20.75;87.49
56270;BME280;42176;43.240;27.880;2022-09-01T00:50:37;99791.66;;;20.64;88.05
56270;BME280;42176;43.240;27.880;2022-09-01T00:53:04;99789.72;;;20.53;89.01
56270;BME280;42176;43.240;27.880;2022-09-01T00:55:32;99800.91;;;20.47;89.78
56270;BME280;42176;43.240;27.880;2022-09-01T00:58:00;99805.25;;;20.63;89.49
56270;BME280;42176;43.240;27.880;2022-09-01T01:00:29;99799.41;;;20.56;89.18
56270;BME280;42176;43.240;27.880;2022-09-01T01:02:56;99801.56;;;20.38;90.85
56270;BME280;42176;43.240;27.880;2022-09-01T01:05:24;99797.25;;;20.48;90.92
56270;BME280;42176;43.240;27.880;2022-09-01T01:07:53;99793.28;;;20.54;90.15
56270;BME280;42176;43.240;27.880;2022-09-01T01:10:21;99793.03;;;20.44;90.55
56270;BME280;42176;43.240;27.880;2022-09-01T01:12:48;99797.13;;;20.50;90.38
56270;BME280;42176;43.240;27.880;2022-09-01T01:15:17;99795.44;;;20.62;89.18
56270;BME280;42176;43.240;27.880;2022-09-01T01:17:43;99783.50;;;20.66;88.36
56270;BME280;42176;43.240;27.880;2022-09-01T01:20:11;99784.34;;;20.66;88.14
56270;BME280;42176;43.240;27.880;2022-09-01T01:23:17;99790.28;;;20.72;87.81
56270;BME280;42176;43.240;27.880;2022-09-01T01:28:28;99782.19;;;20.72;87.78
56270;BME280;42176;43.240;27.880;2022-09-01T01:31:03;99788.44;;;20.72;87.93
56270;BME280;42176;43.240;27.880;2022-09-01T01:33:35;99784.69;;;20.75;87.44
56270;BME280;42176;43.240;27.880;2022-09-01T01:36:09;99791.50;;;20.80;87.38
56270;BME280;42176;43.240;27.880;2022-09-01T01:38:38;99787.06;;;20.79;87.15
56270;BME280;42176;43.240;27.880;2022-09-01T01:41:07;99772.50;;;20.69;87.10
56270;BME280;42176;43.240;27.880;2022-09-01T01:43:32;99786.31;;;20.77;87.08
56270;BME280;42176;43.240;27.880;2022-09-01T01:45:58;99793.63;;;20.75;87.11
56270;BME280;42176;43.240;27.880;2022-09-01T01:48:27;99776.16;;;20.68;87.01
56270;BME280;42176;43.240;27.880;2022-09-01T01:50:53;99787.03;;;20.66;87.13
56270;BME280;42176;43.240;27.880;2022-09-01T01:53:20;99793.81;;;20.72;87.32
56270;BME280;42176;43.240;27.880;2022-09-01T01:55:47;99799.19;;;20.72;87.15
56270;BME280;42176;43.240;27.880;2022-09-01T01:58:14;99798.22;;;20.73;87.08
56270;BME280;42176;43.240;27.880;2022-09-01T02:00:41;99801.91;;;20.72;87.21
56270;BME280;42176;43.240;27.880;2022-09-01T02:03:09;99797.72;;;20.68;87.62
56270;BME280;42176;43.240;27.880;2022-09-01T02:05:38;99791.22;;;20.58;87.60
56270;BME280;42176;43.240;27.880;2022-09-01T02:08:08;99780.91;;;20.51;88.08
56270;BME280;42176;43.240;27.880;2022-09-01T02:10:42;99779.38;;;20.47;88.19
56270;BME280;42176;43.240;27.880;2022-09-01T02:13:09;99772.69;;;20.40;87.87
56270;BME280;42176;43.240;27.880;2022-09-01T02:15:45;99782.47;;;20.41;88.12
56270;BME280;42176;43.240;27.880;2022-09-01T02:18:17;99796.19;;;20.38;88.13
56270;BME280;42176;43.240;27.880;2022-09-01T02:20:44;99771.28;;;20.34;88.22
56270;BME280;42176;43.240;27.880;2022-09-01T02:23:12;99764.50;;;20.29;88.22
56270;BME280;42176;43.240;27.880;2022-09-01T02:25:41;99781.06;;;20.22;88.51
56270;BME280;42176;43.240;27.880;2022-09-01T02:28:10;99765.34;;;20.16;88.95
56270;BME280;42176;43.240;27.880;2022-09-01T02:30:44;99771.88;;;20.12;89.14
56270;BME280;42176;43.240;27.880;2022-09-01T02:33:11;99751.75;;;20.05;89.05
56270;BME280;42176;43.240;27.880;2022-09-01T02:35:43;99760.34;;;20.10;88.88
56270;BME280;42176;43.240;27.880;2022-09-01T02:38:09;99756.19;;;20.06;89.13
56270;BME280;42176;43.240;27.880;2022-09-01T02:40:39;99760.59;;;20.07;89.18
56270;BME280;42176;43.240;27.880;2022-09-01T02:43:05;99773.28;;;20.05;89.30
56270;BME280;42176;43.240;27.880;2022-09-01T02:45:30;99758.88;;;20.06;88.93
56270;BME280;42176;43.240;27.880;2022-09-01T02:47:57;99768.09;;;20.02;89.09
56270;BME280;42176;43.240;27.880;2022-09-01T02:50:24;99771.94;;;19.98;88.99
56270;BME280;42176;43.240;27.880;2022-09-01T02:52:50;99776.38;;;19.99;88.96
56270;BME280;42176;43.240;27.880;2022-09-01T02:55:17;99777.53;;;19.95;88.86
56270;BME280;42176;43.240;27.880;2022-09-01T02:57:47;99767.75;;;19.93;89.13
56270;BME280;42176;43.240;27.880;2022-09-01T03:00:14;99751.22;;;19.85;89.20
56270;BME280;42176;43.240;27.880;2022-09-01T03:02:53;99759.03;;;19.90;89.05
56270;BME280;42176;43.240;27.880;2022-09-01T03:05:23;99750.88;;;19.91;88.72
56270;BME280;42176;43.240;27.880;2022-09-01T03:08:04;99754.53;;;19.90;88.73
56270;BME280;42176;43.240;27.880;2022-09-01T03:10:39;99766.13;;;19.91;88.49
56270;BME280;42176;43.240;27.880;2022-09-01T03:13:14;99775.06;;;19.91;88.33
56270;BME280;42176;43.240;27.880;2022-09-01T03:15:40;99764.19;;;19.93;88.21
56270;BME280;42176;43.240;27.880;2022-09-01T03:18:08;99783.16;;;19.91;87.98
56270;BME280;42176;43.240;27.880;2022-09-01T03:20:36;99775.81;;;19.93;88.03
56270;BME280;42176;43.240;27.880;2022-09-01T03:23:06;99780.34;;;19.93;87.77
56270;BME280;42176;43.240;27.880;2022-09-01T03:25:34;99784.63;;;19.96;87.31
56270;BME280;42176;43.240;27.880;2022-09-01T03:28:00;99782.06;;;19.94;87.25
56270;BME280;42176;43.240;27.880;2022-09-01T03:30:32;99786.56;;;19.93;87.00
56270;BME280;42176;43.240;27.880;2022-09-01T03:32:59;99782.19;;;19.92;86.90
56270;BME280;42176;43.240;27.880;2022-09-01T03:35:27;99792.19;;;19.90;86.68
56270;BME280;42176;43.240;27.880;2022-09-01T03:37:56;99777.75;;;19.91;86.35
56270;BME280;42176;43.240;27.880;2022-09-01T03:40:25;99781.19;;;19.93;86.17
56270;BME280;42176;43.240;27.880;2022-09-01T03:42:55;99777.53;;;19.95;85.92
56270;BME280;42176;43.240;27.880;2022-09-01T03:45:21;99767.00;;;19.91;85.86
56270;BME280;42176;43.240;27.880;2022-09-01T03:47:46;99763.13;;;19.96;85.54
56270;BME280;42176;43.240;27.880;2022-09-01T03:50:14;99767.22;;;19.88;85.87
56270;BME280;42176;43.240;27.880;2022-09-01T03:52:47;99771.19;;;19.96;85.43
56270;BME280;42176;43.240;27.880;2022-09-01T03:55:15;99772.91;;;19.97;85.13
56270;BME280;42176;43.240;27.880;2022-09-01T03:57:48;99771.75;;;20.01;84.71
56270;BME280;42176;43.240;27.880;2022-09-01T04:02:43;99768.16;;;20.28;83.17
56270;BME280;42176;43.240;27.880;2022-09-01T04:05:08;99784.34;;;20.53;81.61
56270;BME280;42176;43.240;27.880;2022-09-01T04:07:34;99777.47;;;20.75;79.91
56270;BME280;42176;43.240;27.880;2022-09-01T04:10:00;99792.22;;;20.95;78.72
56270;BME280;42176;43.240;27.880;2022-09-01T04:12:25;99788.69;;;20.95;78.29
56270;BME280;42176;43.240;27.880;2022-09-01T04:14:51;99792.09;;;21.23;77.16
56270;BME280;42176;43.240;27.880;2022-09-01T04:17:16;99796.56;;;21.61;74.84
56270;BME280;42176;43.240;27.880;2022-09-01T04:20:01;99775.09;;;21.84;73.04
56270;BME280;42176;43.240;27.880;2022-09-01T04:22:32;99805.72;;;22.31;71.06
56270;BME280;42176;43.240;27.880;2022-09-01T04:25:03;99785.34;;;22.63;69.27
56270;BME280;42176;43.240;27.880;2022-09-01T04:27:28;99792.84;;;22.82;68.12
56270;BME280;42176;43.240;27.880;2022-09-01T04:29:54;99782.66;;;23.20;66.51
56270;BME280;42176;43.240;27.880;2022-09-01T04:32:20;99779.69;;;23.57;64.87
56270;BME280;42176;43.240;27.880;2022-09-01T04:34:46;99792.91;;;23.83;62.99
56270;BME280;42176;43.240;27.880;2022-09-01T04:37:18;99789.06;;;24.29;61.63
56270;BME280;42176;43.240;27.880;2022-09-01T04:39:53;99789.78;;;24.53;60.03
56270;BME280;42176;43.240;27.880;2022-09-01T04:42:20;99786.41;;;24.82;59.05
56270;BME280;42176;43.240;27.880;2022-09-01T04:44:51;99783.59;;;25.24;57.13
56270;BME280;42176;43.240;27.880;2022-09-01T04:47:19;99786.00;;;25.48;55.59
56270;BME280;42176;43.240;27.880;2022-09-01T04:49:54;99791.09;;;26.02;53.96
56270;BME280;42176;43.240;27.880;2022-09-01T04:52:22;99799.81;;;26.45;52.54
56270;BME280;42176;43.240;27.880;2022-09-01T04:54:49;99811.06;;;26.70;51.39
56270;BME280;42176;43.240;27.880;2022-09-01T04:57:15;99797.97;;;27.03;50.09
56270;BME280;42176;43.240;27.880;2022-09-01T04:59:41;99793.47;;;27.22;49.25
56270;BME280;42176;43.240;27.880;2022-09-01T05:02:07;99801.84;;;27.38;48.53
56270;BME280;42176;43.240;27.880;2022-09-01T05:04:34;99791.03;;;27.74;47.82
56270;BME280;42176;43.240;27.880;2022-09-01T05:07:00;99793.88;;;28.19;46.66
56270;BME280;42176;43.240;27.880;2022-09-01T05:09:28;99793.38;;;28.78;45.15
56270;BME280;42176;43.240;27.880;2022-09-01T05:11:55;99791.09;;;28.73;44.56
56270;BME280;42176;43.240;27.880;2022-09-01T05:14:22;99796.50;;;28.91;43.95
56270;BME280;42176;43.240;27.880;2022-09-01T05:16:49;99785.00;;;29.06;43.86
56270;BME280;42176;43.240;27.880;2022-09-01T05:19:15;99775.47;;;29.10;43.46
56270;BME280;42176;43.240;27.880;2022-09-01T05:21:43;99781.75;;;29.37;43.08
56270;BME280;42176;43.240;27.880;2022-09-01T05:24:14;99783.66;;;29.44;42.95
56270;BME280;42176;43.240;27.880;2022-09-01T05:26:40;99776.97;;;29.39;42.80
56270;BME280;42176;43.240;27.880;2022-09-01T05:29:08;99791.91;;;29.26;43.13
56270;BME280;42176;43.240;27.880;2022-09-01T05:31:46;99782.72;;;29.27;43.26
56270;BME280;42176;43.240;27.880;2022-09-01T05:34:13;99780.81;;;29.79;42.25
56270;BME280;42176;43.240;27.880;2022-09-01T05:36:50;99789.47;;;30.50;40.92
56270;BME280;42176;43.240;27.880;2022-09-01T05:39:17;99773.66;;;30.94;39.28
56270;BME280;42176;43.240;27.880;2022-09-01T05:41:43;99778.06;;;31.03;39.03
56270;BME280;42176;43.240;27.880;2022-09-01T05:44:10;99787.84;;;31.46;38.54
56270;BME280;42176;43.240;27.880;2022-09-01T05:46:37;99791.19;;;31.24;38.72
56270;BME280;42176;43.240;27.880;2022-09-01T05:49:05;99784.50;;;31.98;37.50
56270;BME280;42176;43.240;27.880;2022-09-01T05:51:40;99789.81;;;32.61;36.29
56270;BME280;42176;43.240;27.880;2022-09-01T05:54:06;99791.97;;;32.51;36.75
56270;BME280;42176;43.240;27.880;2022-09-01T05:56:35;99792.44;;;33.38;35.09
56270;BME280;42176;43.240;27.880;2022-09-01T05:59:06;99795.28;;;33.30;34.65
56270;BME280;42176;43.240;27.880;2022-09-01T06:01:32;99795.34;;;33.51;34.50
56270;BME280;42176;43.240;27.880;2022-09-01T06:04:00;99800.09;;;33.58;34.10
56270;BME280;42176;43.240;27.880;2022-09-01T06:06:36;99792.06;;;33.93;33.71
56270;BME280;42176;43.240;27.880;2022-09-01T06:09:04;99792.16;;;34.71;32.31
56270;BME280;42176;43.240;27.880;2022-09-01T06:11:31;99804.91;;;35.49;31.81
56270;BME280;42176;43.240;27.880;2022-09-01T06:13:58;99801.50;;;36.16;30.62
56270;BME280;42176;43.240;27.880;2022-09-01T06:16:25;99807.69;;;35.56;30.80
56270;BME280;42176;43.240;27.880;2022-09-01T06:18:52;99812.16;;;35.57;31.45
56270;BME280;42176;43.240;27.880;2022-09-01T06:21:19;99796.22;;;36.21;29.93
56270;BME280;42176;43.240;27.880;2022-09-01T06:23:46;99806.38;;;36.01;30.60
56270;BME280;42176;43.240;27.880;2022-09-01T06:26:35;99796.22;;;36.75;29.52
56270;BME280;42176;43.240;27.880;2022-09-01T06:29:05;99824.63;;;37.23;28.86
56270;BME280;42176;43.240;27.880;2022-09-01T06:31:33;99822.16;;;38.05;27.64
56270;BME280;42176;43.240;27.880;2022-09-01T06:34:02;99812.56;;;37.69;28.05
56270;BME280;42176;43.240;27.880;2022-09-01T06:36:30;99815.09;;;37.18;28.92
56270;BME280;42176;43.240;27.880;2022-09-01T06:38:58;99811.22;;;37.33;28.14
56270;BME280;42176;43.240;27.880;2022-09-01T06:41:27;99814.31;;;36.57;29.45
56270;BME280;42176;43.240;27.880;2022-09-01T06:43:53;99822.09;;;36.27;30.07
56270;BME280;42176;43.240;27.880;2022-09-01T06:46:23;99829.22;;;37.56;28.42
56270;BME280;42176;43.240;27.880;2022-09-01T06:48:52;99828.09;;;36.78;29.33
56270;BME280;42176;43.240;27.880;2022-09-01T06:51:21;99830.22;;;38.14;27.49
56270;BME280;42176;43.240;27.880;2022-09-01T06:53:49;99834.91;;;38.71;26.77
56270;BME280;42176;43.240;27.880;2022-09-01T06:56:21;99824.38;;;39.05;26.23
56270;BME280;42176;43.240;27.880;2022-09-01T06:58:47;99842.72;;;39.80;25.34
56270;BME280;42176;43.240;27.880;2022-09-01T07:01:16;99822.38;;;39.68;24.96
56270;BME280;42176;43.240;27.880;2022-09-01T07:03:45;99826.25;;;39.29;26.09
56270;BME280;42176;43.240;27.880;2022-09-01T07:06:13;99827.09;;;39.98;25.28
56270;BME280;42176;43.240;27.880;2022-09-01T07:08:40;99833.50;;;40.29;24.73
56270;BME280;42176;43.240;27.880;2022-09-01T07:11:19;99833.13;;;39.95;25.28
56270;BME280;42176;43.240;27.880;2022-09-01T07:13:49;99833.16;;;39.57;25.62
56270;BME280;42176;43.240;27.880;2022-09-01T07:16:19;99834.22;;;40.36;24.81
56270;BME280;42176;43.240;27.880;2022-09-01T07:18:50;99825.47;;;40.87;23.85
56270;BME280;42176;43.240;27.880;2022-09-01T07:21:17;99830.66;;;41.19;23.66
56270;BME280;42176;43.240;27.880;2022-09-01T07:23:42;99828.41;;;41.68;22.92
56270;BME280;42176;43.240;27.880;2022-09-01T07:26:08;99831.78;;;41.99;22.76
56270;BME280;42176;43.240;27.880;2022-09-01T07:28:35;99832.78;;;41.81;22.77
56270;BME280;42176;43.240;27.880;2022-09-01T07:31:00;99800.28;;;41.82;22.82
56270;BME280;42176;43.240;27.880;2022-09-01T07:33:30;99822.97;;;42.20;22.39
56270;BME280;42176;43.240;27.880;2022-09-01T07:35:56;99819.31;;;41.90;22.70
56270;BME280;42176;43.240;27.880;2022-09-01T07:38:23;99807.06;;;41.33;23.39
56270;BME280;42176;43.240;27.880;2022-09-01T07:40:50;99839.03;;;41.72;22.84
56270;BME280;42176;43.240;27.880;2022-09-01T07:43:23;99843.47;;;40.96;23.48
56270;BME280;42176;43.240;27.880;2022-09-01T07:45:54;99837.19;;;41.13;23.66
56270;BME280;42176;43.240;27.880;2022-09-01T07:48:23;99836.63;;;41.63;22.95
56270;BME280;42176;43.240;27.880;2022-09-01T07:50:52;99842.28;;;41.16;23.63
56270;BME280;42176;43.240;27.880;2022-09-01T07:53:23;99840.75;;;41.49;22.97
56270;BME280;42176;43.240;27.880;2022-09-01T07:55:50;99855.97;;;39.78;24.71
56270;BME280;42176;43.240;27.880;2022-09-01T07:58:20;99851.69;;;40.91;23.73
56270;BME280;42176;43.240;27.880;2022-09-01T08:00:47;99838.75;;;40.73;24.08
56270;BME280;42176;43.240;27.880;2022-09-01T08:03:15;99843.03;;;40.45;24.08
56270;BME280;42176;43.240;27.880;2022-09-01T08:05:41;99827.75;;;40.66;23.73
56270;BME280;42176;43.240;27.880;2022-09-01T08:08:07;99835.38;;;40.16;24.14
56270;BME280;42176;43.240;27.880;2022-09-01T08:10:33;99836.28;;;38.61;25.82
56270;BME280;42176;43.240;27.880;2022-09-01T08:12:58;99822.22;;;37.99;26.96
56270;BME280;42176;43.240;27.880;2022-09-01T08:15:24;99822.97;;;38.70;25.62
56270;BME280;42176;43.240;27.880;2022-09-01T08:17:50;99831.28;;;38.95;25.55
56270;BME280;42176;43.240;27.880;2022-09-01T08:20:15;99824.09;;;38.88;25.51
56270;BME280;42176;43.240;27.880;2022-09-01T08:22:41;99834.38;;;39.06;25.61
56270;BME280;42176;43.240;27.880;2022-09-01T08:25:08;99819.50;;;38.24;26.41
56270;BME280;42176;43.240;27.880;2022-09-01T08:27:35;99822.09;;;36.14;29.01
56270;BME280;42176;43.240;27.880;2022-09-01T08:30:05;99825.06;;;35.50;30.03
56270;BME280;42176;43.240;27.880;2022-09-01T08:32:32;99819.91;;;35.05;31.14
56270;BME280;42176;43.240;27.880;2022-09-01T08:34:58;99819.28;;;34.31;31.94
56270;BME280;42176;43.240;27.880;2022-09-01T08:37:23;99815.81;;;35.71;30.23
56270;BME280;42176;43.240;27.880;2022-09-01T08:39:50;99811.72;;;34.90;31.54
56270;BME280;42176;43.240;27.880;2022-09-01T08:45:53;99796.66;;;36.99;28.59
56270;BME280;42176;43.240;27.880;2022-09-01T08:48:41;99800.50;;;36.71;29.12
56270;BME280;42176;43.240;27.880;2022-09-01T08:51:24;99803.72;;;37.40;28.12
56270;BME280;42176;43.240;27.880;2022-09-01T08:56:25;99778.38;;;36.98;28.06
56270;BME280;42176;43.240;27.880;2022-09-01T08:58:52;99778.56;;;37.62;27.04
56270;BME280;42176;43.240;27.880;2022-09-01T09:01:28;99775.94;;;37.81;26.85
56270;BME280;42176;43.240;27.880;2022-09-01T09:06:53;99775.44;;;37.97;27.15
56270;BME280;42176;43.240;27.880;2022-09-01T09:09:40;99777.28;;;38.03;26.39
56270;BME280;42176;43.240;27.880;2022-09-01T09:12:12;99788.34;;;36.18;28.88
56270;BME280;42176;43.240;27.880;2022-09-01T09:15:32;99773.47;;;34.16;31.74
56270;BME280;42176;43.240;27.880;2022-09-01T09:18:09;99787.28;;;33.35;33.60
56270;BME280;42176;43.240;27.880;2022-09-01T09:20:37;99775.94;;;32.78;33.70
56270;BME280;42176;43.240;27.880;2022-09-01T09:23:15;99772.47;;;32.23;34.80
56270;BME280;42176;43.240;27.880;2022-09-01T09:25:42;99780.16;;;31.49;36.67
56270;BME280;42176;43.240;27.880;2022-09-01T09:28:09;99767.78;;;31.22;36.86
56270;BME280;42176;43.240;27.880;2022-09-01T09:30:34;99771.25;;;30.99;37.76
56270;BME280;42176;43.240;27.880;2022-09-01T09:33:03;99780.41;;;30.58;38.26
56270;BME280;42176;43.240;27.880;2022-09-01T09:35:47;99759.72;;;30.56;38.71
56270;BME280;42176;43.240;27.880;2022-09-01T09:38:19;99770.13;;;30.68;38.70
56270;BME280;42176;43.240;27.880;2022-09-01T09:41:03;99735.78;;;30.58;38.22
56270;BME280;42176;43.240;27.880;2022-09-01T09:43:32;99771.84;;;30.70;38.41
56270;BME280;42176;43.240;27.880;2022-09-01T09:46:23;99769.94;;;30.70;38.14
56270;BME280;42176;43.240;27.880;2022-09-01T09:51:33;99766.38;;;30.53;38.53
56270;BME280;42176;43.240;27.880;2022-09-01T09:56:38;99763.13;;;30.25;38.77
56270;BME280;42176;43.240;27.880;2022-09-01T09:59:28;99772.69;;;30.37;39.20
56270;BME280;42176;43.240;27.880;2022-09-01T10:01:59;99757.31;;;30.44;38.69
56270;BME280;42176;43.240;27.880;2022-09-01T10:04:39;99775.44;;;30.45;38.61
56270;BME280;42176;43.240;27.880;2022-09-01T10:07:28;99759.38;;;30.50;38.73
56270;BME280;42176;43.240;27.880;2022-09-01T10:09:55;99756.63;;;30.42;38.77
56270;BME280;42176;43.240;27.880;2022-09-01T10:12:25;99757.16;;;30.37;39.01
56270;BME280;42176;43.240;27.880;2022-09-01T10:15:08;99759.38;;;30.50;38.72
56270;BME280;42176;43.240;27.880;2022-09-01T10:17:37;99747.75;;;30.48;38.67
56270;BME280;42176;43.240;27.880;2022-09-01T10:20:20;99757.66;;;30.08;39.03
56270;BME280;42176;43.240;27.880;2022-09-01T10:22:47;99748.75;;;29.73;39.84
56270;BME280;42176;43.240;27.880;2022-09-01T10:25:23;99749.09;;;29.86;41.70
56270;BME280;42176;43.240;27.880;2022-09-01T10:27:53;99752.63;;;29.11;51.50
56270;BME280;42176;43.240;27.880;2022-09-01T10:30:22;99746.09;;;28.51;54.62
56270;BME280;42176;43.240;27.880;2022-09-01T10:32:53;99748.09;;;28.04;57.03
56270;BME280;42176;43.240;27.880;2022-09-01T10:37:52;99733.16;;;27.54;59.99
56270;BME280;42176;43.240;27.880;2022-09-01T10:40:34;99734.25;;;27.79;59.33
56270;BME280;42176;43.240;27.880;2022-09-01T10:43:26;99745.91;;;27.90;57.93
56270;BME280;42176;43.240;27.880;2022-09-01T10:45:54;99739.41;;;27.83;58.47
56270;BME280;42176;43.240;27.880;2022-09-01T10:56:05;99737.44;;;27.57;68.98
56270;BME280;42176;43.240;27.880;2022-09-01T10:58:49;99747.00;;;27.61;68.60
56270;BME280;42176;43.240;27.880;2022-09-01T11:04:19;99745.91;;;27.54;69.81
56270;BME280;42176;43.240;27.880;2022-09-01T11:09:26;99746.88;;;27.80;66.80
56270;BME280;42176;43.240;27.880;2022-09-01T11:17:31;99724.88;;;28.36;63.44
56270;BME280;42176;43.240;27.880;2022-09-01T11:20:26;99721.91;;;28.48;62.69
56270;BME280;42176;43.240;27.880;2022-09-01T11:23:30;99706.22;;;28.05;63.76
56270;BME280;42176;43.240;27.880;2022-09-01T11:25:57;99728.44;;;27.92;65.11
56270;BME280;42176;43.240;27.880;2022-09-01T11:30:55;99729.25;;;27.57;64.79
56270;BME280;42176;43.240;27.880;2022-09-01T11:36:45;99737.72;;;27.26;63.59
56270;BME280;42176;43.240;27.880;2022-09-01T11:39:41;99739.56;;;27.07;63.78
56270;BME280;42176;43.240;27.880;2022-09-01T11:44:55;99747.66;;;26.89;64.87
56270;BME280;42176;43.240;27.880;2022-09-01T11:47:27;99736.44;;;27.02;65.45
56270;BME280;42176;43.240;27.880;2022-09-01T11:52:26;99738.50;;;26.80;65.55
56270;BME280;42176;43.240;27.880;2022-09-01T11:54:54;99738.47;;;26.90;69.31
56270;BME280;42176;43.240;27.880;2022-09-01T11:57:24;99749.31;;;27.00;70.88
56270;BME280;42176;43.240;27.880;2022-09-01T11:59:50;99722.19;;;26.80;70.95
56270;BME280;42176;43.240;27.880;2022-09-01T12:04:48;99733.53;;;26.66;70.45
56270;BME280;42176;43.240;27.880;2022-09-01T12:09:50;99752.09;;;26.23;70.39
56270;BME280;42176;43.240;27.880;2022-09-01T12:12:32;99742.91;;;26.24;72.20
56270;BME280;42176;43.240;27.880;2022-09-01T12:14:58;99738.34;;;26.34;74.09
56270;BME280;42176;43.240;27.880;2022-09-01T12:17:24;99737.88;;;26.09;75.63
56270;BME280;42176;43.240;27.880;2022-09-01T12:19:49;99697.75;;;26.03;76.04
56270;BME280;42176;43.240;27.880;2022-09-01T12:22:17;99742.22;;;26.12;76.60
56270;BME280;42176;43.240;27.880;2022-09-01T12:24:48;99742.88;;;26.43;75.13
56270;BME280;42176;43.240;27.880;2022-09-01T12:27:15;99728.56;;;26.51;75.21
56270;BME280;42176;43.240;27.880;2022-09-01T12:29:40;99729.09;;;26.65;75.04
56270;BME280;42176;43.240;27.880;2022-09-01T12:32:07;99726.06;;;26.87;73.85
56270;BME280;42176;43.240;27.880;2022-09-01T12:39:33;99749.25;;;27.19;70.63
56270;BME280;42176;43.240;27.880;2022-09-01T12:52:54;99770.31;;;26.50;74.31
56270;BME280;42176;43.240;27.880;2022-09-01T12:55:25;99763.44;;;26.66;73.85
56270;BME280;42176;43.240;27.880;2022-09-01T12:57:52;99770.19;;;26.52;74.50
56270;BME280;42176;43.240;27.880;2022-09-01T13:00:29;99768.06;;;26.36;74.96
56270;BME280;42176;43.240;27.880;2022-09-01T13:08:00;99794.34;;;25.96;75.59
56270;BME280;42176;43.240;27.880;2022-09-01T13:10:31;99788.91;;;25.86;75.34
56270;BME280;42176;43.240;27.880;2022-09-01T13:12:58;99796.06;;;25.87;76.32
56270;BME280;42176;43.240;27.880;2022-09-01T13:15:25;99803.19;;;25.68;78.27
56270;BME280;42176;43.240;27.880;2022-09-01T13:17:51;99779.03;;;25.56;78.61
56270;BME280;42176;43.240;27.880;2022-09-01T13:20:17;99812.03;;;25.71;79.71
56270;BME280;42176;43.240;27.880;2022-09-01T13:22:43;99798.75;;;25.67;79.65
56270;BME280;42176;43.240;27.880;2022-09-01T13:25:14;99804.06;;;25.79;79.31
56270;BME280;42176;43.240;27.880;2022-09-01T13:27:43;99802.31;;;25.68;79.44
56270;BME280;42176;43.240;27.880;2022-09-01T13:30:11;99797.19;;;25.75;80.26
56270;BME280;42176;43.240;27.880;2022-09-01T13:32:38;99774.59;;;25.64;80.40
56270;BME280;42176;43.240;27.880;2022-09-01T13:35:05;99792.34;;;25.68;81.59
56270;BME280;42176;43.240;27.880;2022-09-01T13:37:30;99790.31;;;25.71;80.42
56270;BME280;42176;43.240;27.880;2022-09-01T13:39:56;99795.19;;;25.77;80.59
56270;BME280;42176;43.240;27.880;2022-09-01T13:42:22;99792.03;;;25.72;82.31
56270;BME280;42176;43.240;27.880;2022-09-01T13:44:47;99796.06;;;25.67;80.05
56270;BME280;42176;43.240;27.880;2022-09-01T13:47:13;99806.59;;;25.61;81.63
56270;BME280;42176;43.240;27.880;2022-09-01T13:49:38;99811.41;;;25.47;83.02
56270;BME280;42176;43.240;27.880;2022-09-01T13:52:04;99803.69;;;25.43;83.30
56270;BME280;42176;43.240;27.880;2022-09-01T13:54:32;99786.31;;;25.24;85.01
56270;BME280;42176;43.240;27.880;2022-09-01T13:56:58;99786.97;;;25.06;85.81
56270;BME280;42176;43.240;27.880;2022-09-01T13:59:23;99787.97;;;24.74;88.42
56270;BME280;42176;43.240;27.880;2022-09-01T14:01:49;99766.28;;;24.74;89.23
56270;BME280;42176;43.240;27.880;2022-09-01T14:04:15;99772.88;;;24.82;87.93
56270;BME280;42176;43.240;27.880;2022-09-01T14:06:43;99760.44;;;24.58;89.76
56270;BME280;42176;43.240;27.880;2022-09-01T14:09:10;99762.94;;;24.50;90.08
56270;BME280;42176;43.240;27.880;2022-09-01T14:11:36;99758.72;;;24.57;90.89
56270;BME280;42176;43.240;27.880;2022-09-01T14:14:02;99766.91;;;24.45;90.58
56270;BME280;42176;43.240;27.880;2022-09-01T14:16:27;99763.34;;;24.66;89.36
56270;BME280;42176;43.240;27.880;2022-09-01T14:18:53;99757.16;;;24.75;87.32
56270;BME280;42176;43.240;27.880;2022-09-01T14:21:18;99757.44;;;24.72;87.83